Time;durP1;ratioP1;P1;durP2;ratioP2;P2;SDS_P1;SDS_P2;PMS_P1;PMS_P2;Temp;Humidity;BMP_temperature;BMP_pressure;BME280_temperature;BME280_humidity;BME280_pressure;Samples;Min_cycle;Max_cycle;Signal;HPM_P1;HPM_P2
2023/05/14 00:02:12;;;;;;;;;;;12.10;99.90;;;;;;4853984;29;20015;-76
2023/05/14 00:04:39;;;;;;;;;;;12.10;99.90;;;;;;4856215;29;19936;-76
2023/05/14 00:07:06;;;;;;;;;;;12.10;99.90;;;;;;4838762;29;20277;-76
2023/05/14 00:09:34;;;;;;;;;;;12.10;99.90;;;;;;4842837;29;19928;-76
2023/05/14 00:12:01;;;;;;;;;;;12.10;99.90;;;;;;4837425;29;20415;-76
2023/05/14 00:14:28;;;;;;;;;;;12.00;99.90;;;;;;4839438;29;19928;-76
2023/05/14 00:16:55;;;;;;;;;;;12.00;99.90;;;;;;4824951;29;19928;-76
2023/05/14 00:19:22;;;;;;;;;;;12.00;99.90;;;;;;4820817;29;19993;-75
2023/05/14 00:21:49;;;;;;;;;;;12.00;99.90;;;;;;4852052;29;19932;-77
2023/05/14 00:24:16;;;;;;;;;;;12.00;99.90;;;;;;4840426;29;22800;-76
2023/05/14 00:26:43;;;;;;;;;;;12.00;99.90;;;;;;4849778;29;19934;-77
2023/05/14 00:29:10;;;;;;;;;;;12.00;99.90;;;;;;4825099;29;19939;-76
2023/05/14 00:31:37;;;;;;;;;;;12.00;99.90;;;;;;4857480;29;19940;-75
2023/05/14 00:34:04;;;;;;;;;;;12.00;99.90;;;;;;4815070;29;19928;-75
2023/05/14 00:36:31;;;;;;;;;;;12.00;99.90;;;;;;4841193;29;20424;-76
2023/05/14 00:38:58;;;;;;;;;;;12.00;99.90;;;;;;4819569;29;19935;-76
2023/05/14 00:41:25;;;;;;;;;;;12.00;99.90;;;;;;4835039;29;22625;-77
2023/05/14 00:43:52;;;;;;;;;;;11.90;99.90;;;;;;4852687;29;20040;-75
2023/05/14 00:46:19;;;;;;;;;;;11.90;99.90;;;;;;4823760;29;20415;-76
2023/05/14 00:48:47;;;;;;;;;;;11.80;99.90;;;;;;4837451;29;19929;-76
2023/05/14 00:51:14;;;;;;;;;;;11.80;99.90;;;;;;4837829;29;20281;-76
2023/05/14 00:53:41;;;;;;;;;;;11.80;99.90;;;;;;4838439;29;20019;-76
2023/05/14 00:56:09;;;;;;;;;;;11.70;99.90;;;;;;4822138;29;19936;-76
2023/05/14 00:58:36;;;;;;;;;;;11.70;99.90;;;;;;4856982;29;19942;-76
2023/05/14 01:01:03;;;;;;;;;;;11.70;99.90;;;;;;4822736;29;19936;-76
2023/05/14 01:03:30;;;;;;;;;;;11.70;99.90;;;;;;4835896;29;19936;-76
2023/05/14 01:06:07;;;;;;;;;;;11.70;99.90;;;;;;4825071;29;20795;-76
2023/05/14 01:08:43;;;;;;;;;;;11.70;99.90;;;;;;4823970;29;20461;-76
2023/05/14 01:11:18;;;;;;;;;;;11.70;99.90;;;;;;4854131;29;19944;-77
2023/05/14 01:13:45;;;;;;;;;;;11.70;99.90;;;;;;4834192;29;19936;-76
2023/05/14 01:16:13;;;;;;;;;;;11.70;99.90;;;;;;4839108;29;20621;-77
2023/05/14 01:18:41;;;;;;;;;;;11.60;99.90;;;;;;4831670;29;20289;-77
2023/05/14 01:21:27;;;;;;;;;;;11.60;99.90;;;;;;4834707;29;20306;-76
2023/05/14 01:23:54;;;;;;;;;;;11.60;99.90;;;;;;4851960;29;20023;-77
2023/05/14 01:26:21;;;;;;;;;;;11.60;99.90;;;;;;4842201;29;19932;-76
2023/05/14 01:28:50;;;;;;;;;;;11.60;99.90;;;;;;4826198;29;19955;-76
2023/05/14 01:31:23;;;;;;;;;;;11.60;99.90;;;;;;4821772;29;20424;-77
2023/05/14 01:33:51;;;;;;;;;;;11.60;99.90;;;;;;4836707;29;20011;-76
2023/05/14 01:36:19;;;;;;;;;;;11.60;99.90;;;;;;4836407;29;22593;-76
2023/05/14 01:38:48;;;;;;;;;;;11.60;99.90;;;;;;4836600;29;19971;-77
2023/05/14 01:41:15;;;;;;;;;;;11.50;99.90;;;;;;4821368;29;19928;-76
2023/05/14 01:43:43;;;;;;;;;;;11.50;99.90;;;;;;4825212;29;20032;-75
2023/05/14 01:46:10;;;;;;;;;;;11.50;99.90;;;;;;4821484;29;19928;-76
2023/05/14 01:48:37;;;;;;;;;;;11.50;99.90;;;;;;4825163;29;19936;-76
2023/05/14 01:51:05;;;;;;;;;;;11.50;99.90;;;;;;4829350;29;20022;-76
2023/05/14 01:53:33;;;;;;;;;;;11.50;99.90;;;;;;4853223;29;19951;-76
2023/05/14 01:56:01;;;;;;;;;;;11.60;99.90;;;;;;4837638;29;19935;-77
2023/05/14 01:58:28;;;;;;;;;;;11.50;99.90;;;;;;4823081;29;20341;-77
2023/05/14 02:00:55;;;;;;;;;;;11.50;99.90;;;;;;4839585;29;19959;-75
2023/05/14 02:03:22;;;;;;;;;;;11.40;99.90;;;;;;4839631;29;20388;-78
2023/05/14 02:05:49;;;;;;;;;;;11.40;99.90;;;;;;4833903;29;19932;-76
2023/05/14 02:08:17;;;;;;;;;;;11.40;99.90;;;;;;4853989;29;20010;-75
2023/05/14 02:10:44;;;;;;;;;;;11.40;99.90;;;;;;4829902;29;19943;-76
2023/05/14 02:13:11;;;;;;;;;;;11.40;99.90;;;;;;4823996;29;19932;-76
2023/05/14 02:15:38;;;;;;;;;;;11.40;99.90;;;;;;4825560;29;20292;-76
2023/05/14 02:18:05;;;;;;;;;;;11.50;99.90;;;;;;4836968;29;19936;-76
2023/05/14 02:20:32;;;;;;;;;;;11.40;99.90;;;;;;4834728;29;20028;-76
2023/05/14 02:22:59;;;;;;;;;;;11.40;99.90;;;;;;4849609;29;19942;-76
2023/05/14 02:25:26;;;;;;;;;;;11.40;99.90;;;;;;4834566;29;19936;-76
2023/05/14 02:27:53;;;;;;;;;;;11.40;99.90;;;;;;4836124;29;20019;-76
2023/05/14 02:30:20;;;;;;;;;;;11.40;99.90;;;;;;4837520;29;20023;-75
2023/05/14 02:32:47;;;;;;;;;;;11.40;99.90;;;;;;4851440;29;19936;-77
2023/05/14 02:35:15;;;;;;;;;;;11.40;99.90;;;;;;4819197;29;20027;-78
2023/05/14 02:37:42;;;;;;;;;;;11.40;99.90;;;;;;4837117;29;19963;-77
2023/05/14 02:40:09;;;;;;;;;;;11.40;99.90;;;;;;4835985;29;19939;-77
2023/05/14 02:42:36;;;;;;;;;;;11.40;99.90;;;;;;4850162;29;22711;-77
2023/05/14 02:45:04;;;;;;;;;;;11.40;99.90;;;;;;4833561;29;19928;-75
2023/05/14 02:47:31;;;;;;;;;;;11.40;99.90;;;;;;4829550;29;19992;-77
2023/05/14 02:49:58;;;;;;;;;;;11.40;99.90;;;;;;4840525;29;20019;-76
2023/05/14 02:52:25;;;;;;;;;;;11.40;99.90;;;;;;4816423;29;19988;-77
2023/05/14 02:54:52;;;;;;;;;;;11.40;99.90;;;;;;4852478;29;20162;-76
2023/05/14 02:57:20;;;;;;;;;;;11.40;99.90;;;;;;4831622;29;19936;-76
2023/05/14 02:59:47;;;;;;;;;;;11.50;99.90;;;;;;4835108;29;19932;-74
2023/05/14 03:02:14;;;;;;;;;;;11.40;99.90;;;;;;4854518;29;20379;-76
2023/05/14 03:04:42;;;;;;;;;;;11.40;99.90;;;;;;4835995;29;19936;-77
2023/05/14 03:07:09;;;;;;;;;;;11.40;99.90;;;;;;4824010;29;19928;-76
2023/05/14 03:09:36;;;;;;;;;;;11.40;99.90;;;;;;4834790;29;20031;-76
2023/05/14 03:12:04;;;;;;;;;;;11.40;99.90;;;;;;4832866;29;19928;-77
2023/05/14 03:14:31;;;;;;;;;;;11.40;99.90;;;;;;4835512;29;19943;-77
2023/05/14 03:16:58;;;;;;;;;;;11.40;99.90;;;;;;4821543;29;19934;-75
2023/05/14 03:19:25;;;;;;;;;;;11.40;99.90;;;;;;4835170;29;19928;-77
2023/05/14 03:21:52;;;;;;;;;;;11.40;99.90;;;;;;4834583;29;19928;-76
2023/05/14 03:24:19;;;;;;;;;;;11.30;99.90;;;;;;4835609;29;19935;-76
2023/05/14 03:26:46;;;;;;;;;;;11.30;99.90;;;;;;4827495;29;19943;-75
2023/05/14 03:29:16;;;;;;;;;;;11.30;99.90;;;;;;4843902;29;20327;-76
2023/05/14 03:31:44;;;;;;;;;;;11.30;99.90;;;;;;4841661;29;20990;-76
2023/05/14 03:34:11;;;;;;;;;;;11.40;99.90;;;;;;4842259;29;19943;-77
2023/05/14 03:36:38;;;;;;;;;;;11.30;99.90;;;;;;4857852;29;19936;-76
2023/05/14 03:39:08;;;;;;;;;;;11.30;99.90;;;;;;4842979;29;19967;-75
2023/05/14 03:41:36;;;;;;;;;;;11.30;99.90;;;;;;4841646;29;19933;-77
2023/05/14 03:44:05;;;;;;;;;;;11.40;99.90;;;;;;4842740;29;20384;-75
2023/05/14 03:46:32;;;;;;;;;;;11.40;99.90;;;;;;4829804;29;20840;-76
2023/05/14 03:48:59;;;;;;;;;;;11.40;99.90;;;;;;4843453;29;19984;-75
2023/05/14 03:51:26;;;;;;;;;;;11.40;99.90;;;;;;4825491;29;20285;-77
2023/05/14 03:53:52;;;;;;;;;;;11.40;99.90;;;;;;4839140;29;19934;-77
2023/05/14 03:56:20;;;;;;;;;;;11.30;99.90;;;;;;4835920;29;19948;-75
2023/05/14 03:58:46;;;;;;;;;;;11.40;99.90;;;;;;4838287;29;20015;-77
2023/05/14 04:01:13;;;;;;;;;;;11.40;99.90;;;;;;4856171;29;22821;-76
2023/05/14 04:03:40;;;;;;;;;;;11.30;99.90;;;;;;4824195;29;19932;-75
2023/05/14 04:06:08;;;;;;;;;;;11.30;99.90;;;;;;4851924;29;19928;-77
2023/05/14 04:08:35;;;;;;;;;;;11.40;99.90;;;;;;4839056;29;20023;-76
2023/05/14 04:11:03;;;;;;;;;;;11.40;99.90;;;;;;4856973;29;19932;-76
2023/05/14 04:13:30;;;;;;;;;;;11.40;99.90;;;;;;4835050;29;19928;-76
2023/05/14 04:15:57;;;;;;;;;;;11.40;99.90;;;;;;4830253;29;23244;-77
2023/05/14 04:18:24;;;;;;;;;;;11.40;99.90;;;;;;4840323;29;20432;-78
2023/05/14 04:20:51;;;;;;;;;;;11.40;99.90;;;;;;4837579;29;20411;-78
2023/05/14 04:23:18;;;;;;;;;;;11.40;99.90;;;;;;4836486;29;19928;-77
2023/05/14 04:25:45;;;;;;;;;;;11.40;99.90;;;;;;4827623;29;19932;-78
2023/05/14 04:28:12;;;;;;;;;;;11.40;99.90;;;;;;4838590;29;21126;-76
2023/05/14 04:30:39;;;;;;;;;;;11.40;99.90;;;;;;4830761;29;19939;-78
2023/05/14 04:33:06;;;;;;;;;;;11.40;99.90;;;;;;4837858;29;19943;-75
2023/05/14 04:35:33;;;;;;;;;;;11.40;99.90;;;;;;4841807;29;19939;-78
2023/05/14 04:38:00;;;;;;;;;;;11.40;99.90;;;;;;4840815;29;19936;-77
2023/05/14 04:40:27;;;;;;;;;;;11.40;99.90;;;;;;4844202;29;19936;-77
2023/05/14 04:42:54;;;;;;;;;;;11.50;99.90;;;;;;4839461;29;20408;-76
2023/05/14 04:45:21;;;;;;;;;;;11.40;99.90;;;;;;4855443;29;22186;-77
2023/05/14 04:47:48;;;;;;;;;;;11.40;99.90;;;;;;4839995;29;19928;-77
2023/05/14 04:50:15;;;;;;;;;;;11.40;99.90;;;;;;4835870;29;19958;-77
2023/05/14 04:52:42;;;;;;;;;;;11.40;99.90;;;;;;4828902;29;19943;-78
2023/05/14 04:55:09;;;;;;;;;;;11.40;99.90;;;;;;4844016;29;19936;-74
2023/05/14 04:57:36;;;;;;;;;;;11.40;99.90;;;;;;4854421;29;19933;-75
2023/05/14 05:00:06;;;;;;;;;;;11.40;99.90;;;;;;4821856;29;19939;-76
2023/05/14 05:02:33;;;;;;;;;;;11.40;99.90;;;;;;4850270;29;19932;-76
2023/05/14 05:05:00;;;;;;;;;;;11.40;99.90;;;;;;4853635;29;20011;-76
2023/05/14 05:07:27;;;;;;;;;;;11.40;99.90;;;;;;4825129;29;22693;-75
2023/05/14 05:09:54;;;;;;;;;;;11.40;99.90;;;;;;4824974;29;19932;-75
2023/05/14 05:12:21;;;;;;;;;;;11.40;99.90;;;;;;4852570;29;19928;-75
2023/05/14 05:14:48;;;;;;;;;;;11.40;99.90;;;;;;4851312;29;19936;-75
2023/05/14 05:17:15;;;;;;;;;;;11.50;99.90;;;;;;4832899;29;19936;-76
2023/05/14 05:19:42;;;;;;;;;;;11.40;99.90;;;;;;4854764;29;19937;-77
2023/05/14 05:22:10;;;;;;;;;;;11.50;99.90;;;;;;4833540;29;19944;-75
2023/05/14 05:24:37;;;;;;;;;;;11.50;99.90;;;;;;4834023;29;19928;-77
2023/05/14 05:27:04;;;;;;;;;;;11.50;99.90;;;;;;4840579;29;20312;-77
2023/05/14 05:29:32;;;;;;;;;;;11.50;99.90;;;;;;4838162;29;19928;-76
2023/05/14 05:31:59;;;;;;;;;;;11.60;99.90;;;;;;4818454;29;20396;-76
2023/05/14 05:34:26;;;;;;;;;;;11.60;99.90;;;;;;4840306;29;22826;-77
2023/05/14 05:36:53;;;;;;;;;;;11.50;99.90;;;;;;4854708;29;20028;-76
2023/05/14 05:39:20;;;;;;;;;;;11.60;99.90;;;;;;4826767;29;19935;-76
2023/05/14 05:41:47;;;;;;;;;;;11.50;99.90;;;;;;4839346;29;19939;-76
2023/05/14 05:44:14;;;;;;;;;;;11.60;99.90;;;;;;4829967;29;19955;-77
2023/05/14 05:46:41;;;;;;;;;;;11.60;99.90;;;;;;4832893;29;19933;-75
2023/05/14 05:49:08;;;;;;;;;;;11.70;99.90;;;;;;4856085;29;22544;-77
2023/05/14 05:51:35;;;;;;;;;;;11.70;99.90;;;;;;4840040;29;19936;-76
2023/05/14 05:54:02;;;;;;;;;;;11.60;99.90;;;;;;4839182;29;20047;-77
2023/05/14 05:56:29;;;;;;;;;;;11.60;99.90;;;;;;4855929;29;19939;-77
2023/05/14 05:58:56;;;;;;;;;;;11.50;99.90;;;;;;4822626;29;19936;-75
2023/05/14 06:01:23;;;;;;;;;;;11.60;99.90;;;;;;4851162;29;20002;-77
2023/05/14 06:03:50;;;;;;;;;;;11.60;99.90;;;;;;4827678;29;19943;-77
2023/05/14 06:06:17;;;;;;;;;;;11.60;99.90;;;;;;4836899;29;22794;-77
2023/05/14 06:08:44;;;;;;;;;;;11.70;99.90;;;;;;4819971;29;20994;-75
2023/05/14 06:11:11;;;;;;;;;;;11.70;99.90;;;;;;4824262;29;20678;-79
2023/05/14 06:13:38;;;;;;;;;;;11.80;99.90;;;;;;4849987;29;19928;-75
2023/05/14 06:16:05;;;;;;;;;;;11.70;99.90;;;;;;4823990;29;19935;-77
2023/05/14 06:18:32;;;;;;;;;;;11.70;99.90;;;;;;4818548;29;19947;-77
2023/05/14 06:20:59;;;;;;;;;;;11.70;99.90;;;;;;4821074;29;19944;-76
2023/05/14 06:23:26;;;;;;;;;;;11.70;99.90;;;;;;4833506;29;19928;-76
2023/05/14 06:25:53;;;;;;;;;;;11.70;99.90;;;;;;4850600;29;19928;-76
2023/05/14 06:28:20;;;;;;;;;;;11.70;99.90;;;;;;4833666;29;19939;-76
2023/05/14 06:30:49;;;;;;;;;;;11.80;99.90;;;;;;4820398;29;19936;-77
2023/05/14 06:33:16;;;;;;;;;;;11.80;99.90;;;;;;4851924;29;19964;-76
2023/05/14 06:35:46;;;;;;;;;;;11.80;99.90;;;;;;4819711;29;20008;-77
2023/05/14 06:38:13;;;;;;;;;;;11.80;99.90;;;;;;4852690;29;19977;-77
2023/05/14 06:40:40;;;;;;;;;;;11.90;99.90;;;;;;4820956;29;20019;-76
2023/05/14 06:43:07;;;;;;;;;;;11.90;99.90;;;;;;4849734;29;20011;-76
2023/05/14 06:45:34;;;;;;;;;;;11.90;99.90;;;;;;4835686;29;19943;-75
2023/05/14 06:48:01;;;;;;;;;;;11.90;99.90;;;;;;4821218;29;19939;-76
2023/05/14 06:50:28;;;;;;;;;;;11.90;99.90;;;;;;4819263;29;19928;-75
2023/05/14 06:52:55;;;;;;;;;;;12.00;99.90;;;;;;4847279;29;19931;-79
2023/05/14 06:55:22;;;;;;;;;;;12.00;99.90;;;;;;4829854;29;19928;-77
2023/05/14 06:57:49;;;;;;;;;;;12.10;99.90;;;;;;4825094;29;19936;-75
2023/05/14 07:00:16;;;;;;;;;;;12.10;99.90;;;;;;4843013;29;19936;-77
2023/05/14 07:02:43;;;;;;;;;;;12.10;99.90;;;;;;4827215;29;19943;-76
2023/05/14 07:05:10;;;;;;;;;;;12.10;99.90;;;;;;4821521;29;19943;-76
2023/05/14 07:07:37;;;;;;;;;;;12.20;99.90;;;;;;4834174;29;19978;-76
2023/05/14 07:10:05;;;;;;;;;;;12.20;99.90;;;;;;4822627;29;20381;-75
2023/05/14 07:12:32;;;;;;;;;;;12.20;99.90;;;;;;4836547;29;19936;-75
2023/05/14 07:14:59;;;;;;;;;;;12.20;99.90;;;;;;4820220;29;19985;-75
2023/05/14 07:17:26;;;;;;;;;;;12.20;99.90;;;;;;4813696;29;19940;-76
2023/05/14 07:19:54;;;;;;;;;;;12.30;99.90;;;;;;4826779;29;20601;-76
2023/05/14 07:22:21;;;;;;;;;;;12.30;99.90;;;;;;4845132;29;22706;-77
2023/05/14 07:24:49;;;;;;;;;;;12.30;99.90;;;;;;4828499;29;20316;-76
2023/05/14 07:27:16;;;;;;;;;;;12.40;99.90;;;;;;4843840;29;20395;-75
2023/05/14 07:29:43;;;;;;;;;;;12.40;99.90;;;;;;4847222;29;22421;-77
2023/05/14 07:32:10;;;;;;;;;;;12.40;99.90;;;;;;4829338;29;22694;-75
2023/05/14 07:34:40;;;;;;;;;;;12.50;99.90;;;;;;4809707;29;19936;-76
2023/05/14 07:37:07;;;;;;;;;;;12.40;99.90;;;;;;4834045;29;20027;-76
2023/05/14 07:39:34;;;;;;;;;;;12.40;99.90;;;;;;4815941;29;19932;-75
2023/05/14 07:42:01;;;;;;;;;;;12.50;99.90;;;;;;4821083;29;20578;-77
2023/05/14 07:44:28;;;;;;;;;;;12.50;99.90;;;;;;4836811;29;19936;-77
2023/05/14 07:46:55;;;;;;;;;;;12.50;99.90;;;;;;4842667;29;20272;-75
2023/05/14 07:49:22;;;;;;;;;;;12.60;99.90;;;;;;4851383;29;19936;-76
2023/05/14 07:51:49;;;;;;;;;;;12.60;99.90;;;;;;4849733;29;20317;-77
2023/05/14 07:54:16;;;;;;;;;;;12.60;99.90;;;;;;4838334;29;19931;-76
2023/05/14 07:56:43;;;;;;;;;;;12.60;99.90;;;;;;4852560;29;19928;-76
2023/05/14 07:59:10;;;;;;;;;;;12.70;99.90;;;;;;4848779;29;20392;-76
2023/05/14 08:01:37;;;;;;;;;;;12.70;99.90;;;;;;4830656;29;19936;-75
2023/05/14 08:04:05;;;;;;;;;;;12.70;99.90;;;;;;4819305;29;20360;-75
2023/05/14 08:06:32;;;;;;;;;;;12.70;99.90;;;;;;4819430;29;19928;-75
2023/05/14 08:08:59;;;;;;;;;;;12.70;99.90;;;;;;4837087;29;19939;-76
2023/05/14 08:11:26;;;;;;;;;;;12.80;99.90;;;;;;4838523;29;19936;-76
2023/05/14 08:13:53;;;;;;;;;;;12.80;99.90;;;;;;4836055;29;20035;-76
2023/05/14 08:16:20;;;;;;;;;;;12.80;99.90;;;;;;4841066;29;19936;-77
2023/05/14 08:18:47;;;;;;;;;;;12.80;99.90;;;;;;4839458;29;19940;-75
2023/05/14 08:21:14;;;;;;;;;;;12.90;99.90;;;;;;4851627;29;19928;-75
2023/05/14 08:23:41;;;;;;;;;;;13.00;99.90;;;;;;4836510;29;19939;-75
2023/05/14 08:26:08;;;;;;;;;;;13.00;99.90;;;;;;4838141;29;19928;-76
2023/05/14 08:28:35;;;;;;;;;;;13.00;99.90;;;;;;4841691;29;20305;-75
2023/05/14 08:31:02;;;;;;;;;;;13.00;99.90;;;;;;4830608;29;19936;-76
2023/05/14 08:33:29;;;;;;;;;;;13.10;99.90;;;;;;4817318;29;20026;-76
2023/05/14 08:35:59;;;;;;;;;;;13.20;99.90;;;;;;4824360;29;19935;-77
2023/05/14 08:38:26;;;;;;;;;;;13.10;99.90;;;;;;4830896;29;19934;-76
2023/05/14 08:40:55;;;;;;;;;;;13.10;99.90;;;;;;4851594;29;19935;-76
2023/05/14 08:43:24;;;;;;;;;;;13.00;99.90;;;;;;4827743;29;19935;-76
2023/05/14 08:45:56;;;;;;;;;;;13.00;99.90;;;;;;4838071;29;19936;-77
2023/05/14 08:48:25;;;;;;;;;;;13.10;99.90;;;;;;4837812;29;19929;-76
2023/05/14 08:50:52;;;;;;;;;;;13.20;99.90;;;;;;4837436;29;20062;-76
2023/05/14 08:53:19;;;;;;;;;;;13.20;99.90;;;;;;4837167;29;19944;-76
2023/05/14 08:55:47;;;;;;;;;;;13.20;99.90;;;;;;4820985;29;20676;-76
2023/05/14 08:58:13;;;;;;;;;;;13.20;99.90;;;;;;4835906;29;19936;-77
2023/05/14 09:00:41;;;;;;;;;;;13.30;99.90;;;;;;4838116;29;19932;-77
2023/05/14 09:03:08;;;;;;;;;;;13.30;99.90;;;;;;4835778;29;19936;-76
2023/05/14 09:05:36;;;;;;;;;;;13.30;99.90;;;;;;4839616;29;19981;-77
2023/05/14 09:08:03;;;;;;;;;;;13.30;99.90;;;;;;4855775;29;19936;-77
2023/05/14 09:10:29;;;;;;;;;;;13.40;99.90;;;;;;4826815;29;19943;-77
2023/05/14 09:12:56;;;;;;;;;;;13.40;99.90;;;;;;4837246;29;20269;-77
2023/05/14 09:15:25;;;;;;;;;;;13.30;99.90;;;;;;4817463;29;19939;-76
2023/05/14 09:17:52;;;;;;;;;;;13.40;99.90;;;;;;4820260;29;23545;-76
2023/05/14 09:20:19;;;;;;;;;;;13.40;99.90;;;;;;4845236;29;19976;-77
2023/05/14 09:22:47;;;;;;;;;;;13.40;99.90;;;;;;4823926;29;19935;-76
2023/05/14 09:25:14;;;;;;;;;;;13.30;99.90;;;;;;4817406;29;19936;-76
2023/05/14 09:27:41;;;;;;;;;;;13.20;99.90;;;;;;4840582;29;19992;-78
2023/05/14 09:30:09;;;;;;;;;;;13.10;99.90;;;;;;4837002;29;19936;-76
2023/05/14 09:32:43;;;;;;;;;;;13.20;99.90;;;;;;4835397;29;20376;-77
2023/05/14 09:35:16;;;;;;;;;;;13.10;99.90;;;;;;4854748;29;22639;-76
2023/05/14 09:37:45;;;;;;;;;;;13.10;99.90;;;;;;4836263;29;22634;-76
2023/05/14 09:40:12;;;;;;;;;;;13.10;99.90;;;;;;4825720;29;20736;-76
2023/05/14 09:42:40;;;;;;;;;;;13.10;99.90;;;;;;4837660;29;20012;-78
2023/05/14 09:45:10;;;;;;;;;;;13.10;99.90;;;;;;4818843;29;19928;-75
2023/05/14 09:47:37;;;;;;;;;;;13.10;99.90;;;;;;4851056;29;20288;-76
2023/05/14 09:50:05;;;;;;;;;;;13.10;99.90;;;;;;4832567;29;20026;-75
2023/05/14 09:52:32;;;;;;;;;;;13.00;99.90;;;;;;4848206;29;19928;-76
2023/05/14 09:54:59;;;;;;;;;;;13.00;99.90;;;;;;4834686;29;19935;-76
2023/05/14 09:57:26;;;;;;;;;;;13.00;99.90;;;;;;4814283;29;19936;-76
2023/05/14 09:59:53;;;;;;;;;;;13.00;99.90;;;;;;4849896;29;19932;-77
2023/05/14 10:02:24;;;;;;;;;;;13.00;99.90;;;;;;4848987;29;19980;-77
2023/05/14 10:04:57;;;;;;;;;;;13.10;99.90;;;;;;4831844;29;19932;-77
2023/05/14 10:07:30;;;;;;;;;;;13.20;99.90;;;;;;4833859;29;19928;-75
2023/05/14 10:10:00;;;;;;;;;;;13.20;99.90;;;;;;4835438;29;19927;-76
2023/05/14 10:12:32;;;;;;;;;;;13.20;99.90;;;;;;4849789;29;19931;-76
2023/05/14 10:15:05;;;;;;;;;;;13.20;99.90;;;;;;4831434;29;19932;-76
2023/05/14 10:17:33;;;;;;;;;;;13.20;99.90;;;;;;4825202;29;20628;-75
2023/05/14 10:20:01;;;;;;;;;;;13.20;99.90;;;;;;4849762;29;19967;-75
2023/05/14 10:22:30;;;;;;;;;;;13.20;99.90;;;;;;4849329;29;20062;-76
2023/05/14 10:24:58;;;;;;;;;;;13.30;99.90;;;;;;4833213;29;20030;-76
2023/05/14 10:27:25;;;;;;;;;;;13.30;99.90;;;;;;4833641;29;20027;-76
2023/05/14 10:29:53;;;;;;;;;;;13.40;99.90;;;;;;4818850;29;20984;-76
2023/05/14 10:32:23;;;;;;;;;;;13.40;99.90;;;;;;4830752;29;20011;-77
2023/05/14 10:34:50;;;;;;;;;;;13.40;99.90;;;;;;4829870;29;19932;-75
2023/05/14 10:37:19;;;;;;;;;;;13.40;99.90;;;;;;4819491;29;19928;-76
2023/05/14 10:39:48;;;;;;;;;;;13.40;99.90;;;;;;4818780;29;22676;-75
2023/05/14 10:42:38;;;;;;;;;;;13.30;99.90;;;;;;4851760;29;19986;-77
2023/05/14 10:45:07;;;;;;;;;;;13.40;99.90;;;;;;4834863;29;19968;-75
2023/05/14 10:47:35;;;;;;;;;;;13.40;99.90;;;;;;4827144;29;19932;-77
2023/05/14 10:50:03;;;;;;;;;;;13.30;99.90;;;;;;4835797;29;19963;-77
2023/05/14 10:52:31;;;;;;;;;;;13.40;99.90;;;;;;4810152;29;19936;-75
2023/05/14 10:54:59;;;;;;;;;;;13.40;99.90;;;;;;4837119;29;19932;-77
2023/05/14 10:57:30;;;;;;;;;;;13.40;99.90;;;;;;4835519;29;22649;-76
2023/05/14 10:59:58;;;;;;;;;;;13.40;99.90;;;;;;4835959;29;19932;-75
2023/05/14 11:02:26;;;;;;;;;;;13.40;99.90;;;;;;4852060;29;20032;-76
2023/05/14 11:04:58;;;;;;;;;;;13.40;99.90;;;;;;4832838;29;19939;-77
2023/05/14 11:07:30;;;;;;;;;;;13.30;99.90;;;;;;4834297;29;20406;-76
2023/05/14 11:10:07;;;;;;;;;;;13.30;99.90;;;;;;4831717;29;20307;-75
2023/05/14 11:12:37;;;;;;;;;;;13.30;99.90;;;;;;4836144;29;19936;-77
2023/05/14 11:15:06;;;;;;;;;;;13.30;99.90;;;;;;4832609;29;19942;-78
2023/05/14 11:17:33;;;;;;;;;;;13.30;99.90;;;;;;4836336;29;19932;-76
2023/05/14 11:20:01;;;;;;;;;;;13.30;99.90;;;;;;4833234;29;19932;-77
2023/05/14 11:22:28;;;;;;;;;;;13.30;99.90;;;;;;4834570;29;20415;-77
2023/05/14 11:24:55;;;;;;;;;;;13.30;99.90;;;;;;4816831;29;20011;-77
2023/05/14 11:27:22;;;;;;;;;;;13.30;99.90;;;;;;4820024;29;19977;-76
2023/05/14 11:29:49;;;;;;;;;;;13.30;99.90;;;;;;4830781;29;19971;-76
2023/05/14 11:32:17;;;;;;;;;;;13.30;99.90;;;;;;4829539;29;19943;-76
2023/05/14 11:34:44;;;;;;;;;;;13.30;99.90;;;;;;4838524;29;19947;-77
2023/05/14 11:37:12;;;;;;;;;;;13.30;99.90;;;;;;4836398;29;19943;-76
2023/05/14 11:39:45;;;;;;;;;;;13.30;99.90;;;;;;4836180;29;19951;-76
2023/05/14 11:42:15;;;;;;;;;;;13.30;99.90;;;;;;4850473;29;19943;-77
2023/05/14 11:44:43;;;;;;;;;;;13.30;99.90;;;;;;4821734;29;19943;-75
2023/05/14 11:47:10;;;;;;;;;;;13.30;99.90;;;;;;4854931;29;19940;-75
2023/05/14 11:49:37;;;;;;;;;;;13.30;99.90;;;;;;4855951;29;20400;-77
2023/05/14 11:52:05;;;;;;;;;;;13.20;99.90;;;;;;4839099;29;19935;-76
2023/05/14 11:54:33;;;;;;;;;;;13.20;99.90;;;;;;4825661;29;20061;-77
2023/05/14 11:57:01;;;;;;;;;;;13.20;99.90;;;;;;4814557;29;19944;-76
2023/05/14 11:59:30;;;;;;;;;;;13.20;99.90;;;;;;4818877;29;19928;-76
2023/05/14 12:01:57;;;;;;;;;;;13.20;99.90;;;;;;4854389;29;19932;-74
2023/05/14 12:04:24;;;;;;;;;;;13.20;99.90;;;;;;4833788;29;19984;-75
2023/05/14 12:06:52;;;;;;;;;;;13.20;99.90;;;;;;4853808;29;20042;-75
2023/05/14 12:09:19;;;;;;;;;;;13.20;99.90;;;;;;4835841;29;20332;-75
2023/05/14 12:11:46;;;;;;;;;;;13.10;99.90;;;;;;4851772;29;20962;-78
2023/05/14 12:14:14;;;;;;;;;;;13.10;99.90;;;;;;4850244;29;20395;-77
2023/05/14 12:16:45;;;;;;;;;;;13.10;99.90;;;;;;4825752;29;19928;-77
2023/05/14 12:19:17;;;;;;;;;;;13.10;99.90;;;;;;4856354;29;19936;-75
2023/05/14 12:21:46;;;;;;;;;;;13.10;99.90;;;;;;4831794;29;19936;-76
2023/05/14 12:24:14;;;;;;;;;;;13.10;99.90;;;;;;4838090;29;22648;-75
2023/05/14 12:26:45;;;;;;;;;;;13.10;99.90;;;;;;4838031;29;19934;-76
2023/05/14 12:29:13;;;;;;;;;;;13.10;99.90;;;;;;4852608;29;19931;-77
2023/05/14 12:31:45;;;;;;;;;;;13.10;99.90;;;;;;4836935;29;22656;-77
2023/05/14 12:34:12;;;;;;;;;;;13.10;99.90;;;;;;4826180;29;19976;-78
2023/05/14 12:36:39;;;;;;;;;;;13.10;99.90;;;;;;4838917;29;20300;-76
2023/05/14 12:39:06;;;;;;;;;;;13.10;99.90;;;;;;4834056;29;19948;-76
2023/05/14 12:41:33;;;;;;;;;;;13.00;99.90;;;;;;4841330;29;19985;-75
2023/05/14 12:44:01;;;;;;;;;;;13.00;99.90;;;;;;4851505;29;19928;-77
2023/05/14 12:46:28;;;;;;;;;;;13.00;99.90;;;;;;4854753;29;19932;-76
2023/05/14 12:48:55;;;;;;;;;;;13.00;99.90;;;;;;4852684;29;20015;-76
2023/05/14 12:51:22;;;;;;;;;;;13.00;99.90;;;;;;4839466;29;19932;-75
2023/05/14 12:53:51;;;;;;;;;;;13.00;99.90;;;;;;4835582;29;19934;-75
2023/05/14 12:56:17;;;;;;;;;;;13.00;99.90;;;;;;4840248;29;19959;-75
2023/05/14 12:58:46;;;;;;;;;;;13.00;99.90;;;;;;4852655;29;20958;-75
2023/05/14 13:01:13;;;;;;;;;;;13.00;99.90;;;;;;4855511;29;19928;-76
2023/05/14 13:03:40;;;;;;;;;;;13.00;99.90;;;;;;4838927;29;19978;-75
2023/05/14 13:06:07;;;;;;;;;;;13.00;99.90;;;;;;4827434;29;20005;-75
2023/05/14 13:08:34;;;;;;;;;;;13.00;99.90;;;;;;4839147;29;19959;-75
2023/05/14 13:11:01;;;;;;;;;;;13.00;99.90;;;;;;4841118;29;20026;-76
2023/05/14 13:13:28;;;;;;;;;;;13.00;99.90;;;;;;4834251;29;19932;-76
2023/05/14 13:15:55;;;;;;;;;;;13.00;99.90;;;;;;4838540;29;19939;-76
2023/05/14 13:18:22;;;;;;;;;;;13.00;99.90;;;;;;4836792;29;20329;-76
2023/05/14 13:20:50;;;;;;;;;;;13.00;99.90;;;;;;4828562;29;19956;-75
2023/05/14 13:23:17;;;;;;;;;;;13.00;99.90;;;;;;4850328;29;20418;-76
2023/05/14 13:25:44;;;;;;;;;;;13.10;99.90;;;;;;4837789;29;19928;-76
2023/05/14 13:28:14;;;;;;;;;;;13.00;99.90;;;;;;4823036;29;19936;-75
2023/05/14 13:31:01;;;;;;;;;;;13.00;99.90;;;;;;4826355;29;19928;-75
2023/05/14 13:33:28;;;;;;;;;;;13.00;99.90;;;;;;4825354;29;19975;-75
2023/05/14 13:35:55;;;;;;;;;;;13.00;99.90;;;;;;4849338;29;19936;-75
2023/05/14 13:38:22;;;;;;;;;;;13.00;99.90;;;;;;4835640;29;19928;-75
2023/05/14 13:40:49;;;;;;;;;;;13.00;99.90;;;;;;4835584;29;20027;-75
2023/05/14 13:43:16;;;;;;;;;;;12.90;99.90;;;;;;4848966;29;19939;-75
2023/05/14 13:45:42;;;;;;;;;;;12.90;99.90;;;;;;4844920;29;19943;-76
2023/05/14 13:48:09;;;;;;;;;;;13.00;99.90;;;;;;4842172;29;19936;-75
2023/05/14 13:50:36;;;;;;;;;;;13.00;99.90;;;;;;4823106;29;19936;-76
2023/05/14 13:53:03;;;;;;;;;;;13.00;99.90;;;;;;4849417;29;20935;-75
2023/05/14 13:55:30;;;;;;;;;;;13.00;99.90;;;;;;4841527;29;19939;-74
2023/05/14 13:57:58;;;;;;;;;;;12.90;99.90;;;;;;4839289;29;19977;-76
2023/05/14 14:00:26;;;;;;;;;;;12.90;99.90;;;;;;4842077;29;19936;-74
2023/05/14 14:02:53;;;;;;;;;;;12.90;99.90;;;;;;4817926;29;20014;-76
2023/05/14 14:05:20;;;;;;;;;;;12.90;99.90;;;;;;4816470;29;19942;-77
2023/05/14 14:07:47;;;;;;;;;;;12.90;99.90;;;;;;4819346;29;19943;-75
2023/05/14 14:10:18;;;;;;;;;;;12.90;99.90;;;;;;4834789;29;19936;-75
2023/05/14 14:12:45;;;;;;;;;;;12.80;99.90;;;;;;4845088;29;20308;-75
2023/05/14 14:15:12;;;;;;;;;;;12.80;99.90;;;;;;4830987;29;20821;-75
2023/05/14 14:17:40;;;;;;;;;;;12.80;99.90;;;;;;4828113;29;22571;-74
2023/05/14 14:20:08;;;;;;;;;;;12.80;99.90;;;;;;4843385;29;20069;-75